createdAt,value
2023-01-23T00:01:19.435Z,26.65
2023-01-23T00:03:50.546Z,27.00
2023-01-23T00:06:21.865Z,27.92
2023-01-23T00:08:52.346Z,28.57
2023-01-23T00:11:25.964Z,27.94
2023-01-23T00:13:57.900Z,28.88
2023-01-23T00:16:32.152Z,29.41
2023-01-23T00:19:03.583Z,28.08
2023-01-23T00:21:34.748Z,27.60
2023-01-23T00:24:06.301Z,27.99
2023-01-23T00:26:36.714Z,27.69
2023-01-23T00:29:08.196Z,27.27
2023-01-23T00:31:41.146Z,26.96
2023-01-23T00:34:16.190Z,27.41
2023-01-23T00:36:47.713Z,28.11
2023-01-23T00:39:21.977Z,28.87
2023-01-23T00:41:53.301Z,28.94
2023-01-23T00:44:24.535Z,28.62
2023-01-23T00:46:55.572Z,29.40
2023-01-23T00:49:28.692Z,29.40
2023-01-23T00:51:59.850Z,29.47
2023-01-23T00:54:31.924Z,29.91
2023-01-23T00:57:03.016Z,30.21
2023-01-23T00:59:33.570Z,30.11
2023-01-23T01:02:04.658Z,30.64
2023-01-23T01:04:35.927Z,29.64
2023-01-23T01:07:07.060Z,29.26
2023-01-23T01:09:37.467Z,29.29
2023-01-23T01:12:08.847Z,29.40
2023-01-23T01:14:41.316Z,29.16
2023-01-23T01:17:12.352Z,28.63
2023-01-23T01:19:43.236Z,27.69
2023-01-23T01:22:14.126Z,27.70
2023-01-23T01:24:45.539Z,26.52
2023-01-23T01:27:16.641Z,28.37
2023-01-23T01:29:47.871Z,29.07
2023-01-23T01:32:18.972Z,29.58
2023-01-23T01:34:54.193Z,28.32
2023-01-23T01:37:26.680Z,28.34
2023-01-23T01:39:57.855Z,28.89
2023-01-23T01:42:30.184Z,29.33
2023-01-23T01:45:03.049Z,29.11
2023-01-23T01:47:34.035Z,30.29
2023-01-23T01:50:05.594Z,28.96
2023-01-23T01:52:36.503Z,30.07
2023-01-23T01:55:07.388Z,29.57
2023-01-23T01:57:42.314Z,29.28
2023-01-23T02:00:17.479Z,29.02
2023-01-23T02:03:04.199Z,29.30
2023-01-23T02:05:40.534Z,29.54
2023-01-23T02:08:43.921Z,30.19
2023-01-23T02:11:16.609Z,29.31
2023-01-23T02:13:47.939Z,29.93
2023-01-23T02:16:23.874Z,29.91
2023-01-23T02:18:58.968Z,30.18
2023-01-23T02:21:31.073Z,28.29
2023-01-23T02:24:16.809Z,29.97
2023-01-23T02:26:48.789Z,29.90
2023-01-23T02:29:21.769Z,29.45
2023-01-23T02:31:58.147Z,30.85
2023-01-23T02:34:29.877Z,30.55
2023-01-23T02:37:04.472Z,29.64
2023-01-23T02:39:34.835Z,30.32
2023-01-23T02:42:06.229Z,29.84
2023-01-23T02:44:49.515Z,30.35
2023-01-23T02:47:22.600Z,30.43
2023-01-23T02:49:53.701Z,29.93
2023-01-23T02:52:25.673Z,29.90
2023-01-23T02:54:56.998Z,30.96
2023-01-23T02:57:28.757Z,30.02
2023-01-23T03:00:17.940Z,29.89
2023-01-23T03:02:50.877Z,28.98
2023-01-23T03:05:22.284Z,29.95
2023-01-23T03:07:56.109Z,30.08
2023-01-23T03:10:27.263Z,29.97
2023-01-23T03:13:03.500Z,30.00
2023-01-23T03:15:43.719Z,30.67
2023-01-23T03:18:14.778Z,31.33
2023-01-23T03:20:46.037Z,30.42
2023-01-23T03:23:18.237Z,30.80
2023-01-23T03:25:50.504Z,31.09
2023-01-23T03:28:39.613Z,30.91
2023-01-23T03:31:11.262Z,31.32
2023-01-23T03:33:44.725Z,30.78
2023-01-23T03:36:17.445Z,30.74
2023-01-23T03:39:06.386Z,30.16
2023-01-23T03:41:39.619Z,29.22
2023-01-23T03:44:11.586Z,29.14
2023-01-23T03:46:43.927Z,29.46
2023-01-23T03:49:15.262Z,30.41
2023-01-23T03:51:46.827Z,29.50
2023-01-23T03:54:20.694Z,30.18
2023-01-23T03:56:51.797Z,30.42
2023-01-23T03:59:41.036Z,29.31
2023-01-23T04:02:11.557Z,28.55
2023-01-23T04:04:43.194Z,28.29
2023-01-23T04:07:14.472Z,28.78
2023-01-23T04:09:47.365Z,28.16
2023-01-23T04:12:18.636Z,28.07
2023-01-23T04:14:52.164Z,28.47
2023-01-23T04:17:22.625Z,28.34
2023-01-23T04:19:54.918Z,28.22
2023-01-23T04:22:25.894Z,29.03
2023-01-23T04:24:56.961Z,28.54
2023-01-23T04:27:28.012Z,29.14
2023-01-23T04:30:00.458Z,28.98
2023-01-23T04:32:32.959Z,29.34
2023-01-23T04:35:06.998Z,28.82
2023-01-23T04:37:40.847Z,29.83
2023-01-23T04:40:13.382Z,28.96
2023-01-23T04:42:54.458Z,28.37
2023-01-23T04:45:38.577Z,28.54
2023-01-23T04:48:30.402Z,27.98
2023-01-23T04:51:02.010Z,28.17
2023-01-23T04:53:33.595Z,28.80
2023-01-23T04:56:06.126Z,28.87
2023-01-23T04:58:37.444Z,29.12
2023-01-23T05:01:10.013Z,28.90
2023-01-23T05:03:41.299Z,28.36
2023-01-23T05:06:12.767Z,28.93
2023-01-23T05:08:43.914Z,28.55
2023-01-23T05:11:22.821Z,27.92
2023-01-23T05:13:54.210Z,27.37
2023-01-23T05:16:25.026Z,27.27
2023-01-23T05:19:13.809Z,26.38
2023-01-23T05:21:46.072Z,27.07
2023-01-23T05:24:23.378Z,27.11
2023-01-23T05:26:54.861Z,27.24
2023-01-23T05:29:27.651Z,26.97
2023-01-23T05:32:14.727Z,26.31
2023-01-23T05:35:01.980Z,25.94
2023-01-23T05:37:34.682Z,26.65
2023-01-23T05:40:10.765Z,26.69
2023-01-23T05:42:59.969Z,26.74
2023-01-23T05:45:50.854Z,26.00
2023-01-23T05:48:35.643Z,26.04
2023-01-23T05:51:11.976Z,25.63
2023-01-23T05:53:43.415Z,25.95
2023-01-23T05:56:14.690Z,25.66
2023-01-23T05:59:06.778Z,25.13
2023-01-23T06:01:53.097Z,25.44
2023-01-23T06:04:42.525Z,25.64
2023-01-23T06:07:26.505Z,25.65
2023-01-23T06:10:00.543Z,25.14
2023-01-23T06:12:33.178Z,24.79
2023-01-23T06:15:04.341Z,25.25
2023-01-23T06:17:36.352Z,25.70
2023-01-23T06:20:07.492Z,24.95
2023-01-23T06:22:38.841Z,24.84
2023-01-23T06:25:14.473Z,25.04
2023-01-23T06:27:45.609Z,25.15
2023-01-23T06:30:17.983Z,24.58
2023-01-23T06:32:50.569Z,24.40
2023-01-23T06:35:25.145Z,24.06
2023-01-23T06:37:56.089Z,24.12
2023-01-23T06:40:28.024Z,24.05
2023-01-23T06:43:11.327Z,23.87
2023-01-23T06:45:55.920Z,23.80
2023-01-23T06:48:28.053Z,23.81
2023-01-23T06:51:02.442Z,23.90
2023-01-23T06:53:34.376Z,23.80
2023-01-23T06:56:08.268Z,23.56
2023-01-23T06:58:41.395Z,23.48
2023-01-23T07:01:21.428Z,23.25
2023-01-23T07:04:15.376Z,23.31
2023-01-23T07:06:47.873Z,22.97
2023-01-23T07:09:21.538Z,23.02
2023-01-23T07:12:05.719Z,22.91
2023-01-23T07:14:37.457Z,22.64
2023-01-23T07:17:10.747Z,22.64
2023-01-23T07:19:41.699Z,22.16
2023-01-23T07:22:20.249Z,22.30
2023-01-23T07:24:51.420Z,22.20
2023-01-23T07:27:22.527Z,22.23
2023-01-23T07:29:53.921Z,22.07
2023-01-23T07:32:25.228Z,21.84
2023-01-23T07:34:56.173Z,21.72
2023-01-23T07:37:27.118Z,21.83
2023-01-23T07:39:58.045Z,21.66
2023-01-23T07:42:29.476Z,21.44
2023-01-23T07:45:00.661Z,21.58
2023-01-23T07:47:32.903Z,21.59
2023-01-23T07:50:04.134Z,21.46
2023-01-23T07:52:35.880Z,21.42
2023-01-23T07:55:07.698Z,21.30
2023-01-23T07:57:38.858Z,21.50
2023-01-23T08:00:11.219Z,21.26
2023-01-23T08:02:44.855Z,21.34
2023-01-23T08:05:15.896Z,21.27
2023-01-23T08:07:46.856Z,21.41
2023-01-23T08:10:18.282Z,21.41
2023-01-23T08:12:49.609Z,21.06
2023-01-23T08:15:20.737Z,21.17
2023-01-23T08:17:51.878Z,21.38
2023-01-23T08:20:24.500Z,21.12
2023-01-23T08:22:55.570Z,20.94
2023-01-23T08:25:26.799Z,20.87
2023-01-23T08:27:57.745Z,20.82
2023-01-23T08:30:28.921Z,21.22
2023-01-23T08:33:00.141Z,20.89
2023-01-23T08:35:31.099Z,20.91
2023-01-23T08:38:03.891Z,20.86
2023-01-23T08:40:35.025Z,21.05
2023-01-23T08:43:06.369Z,20.81
2023-01-23T08:45:37.280Z,20.71
2023-01-23T08:48:08.950Z,20.59
2023-01-23T08:50:40.053Z,20.62
2023-01-23T08:53:10.923Z,20.46
2023-01-23T08:55:42.336Z,20.52
2023-01-23T08:58:14.585Z,20.63
2023-01-23T09:00:45.685Z,20.72
2023-01-23T09:03:16.877Z,20.59
2023-01-23T09:05:47.976Z,20.57
2023-01-23T09:08:20.085Z,20.77
2023-01-23T09:10:51.025Z,20.38
2023-01-23T09:13:22.173Z,20.50
2023-01-23T09:15:53.599Z,20.52
2023-01-23T09:18:26.327Z,20.45
2023-01-23T09:20:57.806Z,20.17
2023-01-23T09:23:29.377Z,20.10
2023-01-23T09:26:04.353Z,20.25
2023-01-23T09:28:35.621Z,20.44
2023-01-23T09:31:09.102Z,19.96
2023-01-23T09:33:39.989Z,20.16
2023-01-23T09:36:11.634Z,20.22
2023-01-23T09:38:42.940Z,20.01
2023-01-23T09:41:23.463Z,19.85
2023-01-23T09:44:08.840Z,19.65
2023-01-23T09:47:03.692Z,19.82
2023-01-23T09:50:07.056Z,19.52
2023-01-23T09:53:01.090Z,19.67
2023-01-23T09:55:46.968Z,19.80
2023-01-23T09:58:33.250Z,19.87
2023-01-23T10:01:04.367Z,19.94
2023-01-23T10:03:35.466Z,19.78
2023-01-23T10:06:15.203Z,19.86
2023-01-23T10:09:06.260Z,20.01
2023-01-23T10:11:58.349Z,19.97
2023-01-23T10:14:49.872Z,19.98
2023-01-23T10:17:33.066Z,20.05
2023-01-23T10:20:22.424Z,20.05
2023-01-23T10:23:09.350Z,19.89
2023-01-23T10:25:42.438Z,19.65
2023-01-23T10:28:16.258Z,19.84
2023-01-23T10:30:52.046Z,19.89
2023-01-23T10:33:23.225Z,19.89
2023-01-23T10:35:58.406Z,20.02
2023-01-23T10:38:35.575Z,20.04
2023-01-23T10:41:19.917Z,20.07
2023-01-23T10:43:56.491Z,19.97
2023-01-23T10:46:39.696Z,19.99
2023-01-23T10:49:10.731Z,19.92
2023-01-23T10:51:49.255Z,20.09
2023-01-23T10:54:31.867Z,19.99
2023-01-23T10:57:24.341Z,19.86
2023-01-23T10:59:58.652Z,19.75
2023-01-23T11:02:42.235Z,19.68
2023-01-23T11:05:50.714Z,19.94
2023-01-23T11:08:34.873Z,19.66
2023-01-23T11:11:17.584Z,19.68
2023-01-23T11:13:52.599Z,19.63
2023-01-23T11:16:24.983Z,19.52
2023-01-23T11:19:07.616Z,19.37
2023-01-23T11:21:41.143Z,19.23
2023-01-23T11:24:40.278Z,19.32
2023-01-23T11:27:22.357Z,19.30
2023-01-23T11:30:02.589Z,19.10
2023-01-23T11:32:35.699Z,19.18
2023-01-23T11:35:19.812Z,19.17
2023-01-23T11:37:51.381Z,18.96
2023-01-23T11:40:22.848Z,18.84
2023-01-23T11:42:54.124Z,19.05
2023-01-23T11:45:24.740Z,19.00
2023-01-23T11:48:14.068Z,19.02
2023-01-23T11:51:03.006Z,19.01
2023-01-23T11:53:50.446Z,19.20
2023-01-23T11:56:39.505Z,19.07
2023-01-23T11:59:15.789Z,19.02
2023-01-23T12:02:15.083Z,18.92
2023-01-23T12:05:27.823Z,18.79
2023-01-23T12:08:34.805Z,18.81
2023-01-23T12:11:18.109Z,18.85
2023-01-23T12:14:14.959Z,18.90
2023-01-23T12:16:51.464Z,18.81
2023-01-23T12:19:42.244Z,18.50
2023-01-23T12:22:44.476Z,18.35
2023-01-23T12:25:37.621Z,18.33
2023-01-23T12:28:18.111Z,18.31
2023-01-23T12:31:21.559Z,18.25
2023-01-23T12:33:57.544Z,18.35
2023-01-23T12:37:10.208Z,18.38
2023-01-23T12:40:00.004Z,18.39
2023-01-23T12:42:55.639Z,18.43
2023-01-23T12:45:29.564Z,18.08
2023-01-23T12:48:38.610Z,18.34
2023-01-23T12:51:25.639Z,18.19
2023-01-23T12:53:58.653Z,18.19
2023-01-23T12:56:36.041Z,18.19
2023-01-23T12:59:28.039Z,18.26
2023-01-23T13:02:17.633Z,18.18
2023-01-23T13:05:02.541Z,18.35
2023-01-23T13:08:09.684Z,18.31
2023-01-23T13:11:07.823Z,18.02
2023-01-23T13:13:38.910Z,17.98
2023-01-23T13:16:15.822Z,17.96
2023-01-23T13:19:18.519Z,17.86
2023-01-23T13:22:31.453Z,17.91
2023-01-23T13:25:25.114Z,18.02
2023-01-23T13:28:46.225Z,18.04
2023-01-23T13:31:36.102Z,17.74
2023-01-23T13:34:19.393Z,17.92
2023-01-23T13:36:55.037Z,17.81
2023-01-23T13:39:29.388Z,17.82
2023-01-23T13:42:16.021Z,17.80
2023-01-23T13:45:20.733Z,17.96
2023-01-23T14:27:44.439Z,17.35
2023-01-23T14:30:27.781Z,17.40
2023-01-23T14:33:00.487Z,17.53
2023-01-23T14:35:33.927Z,17.52
2023-01-23T14:38:08.640Z,17.63
2023-01-23T14:40:51.140Z,17.70
2023-01-23T14:43:29.698Z,17.75
2023-01-23T14:46:15.994Z,17.53
2023-01-23T14:48:51.941Z,17.46
2023-01-23T14:51:28.639Z,17.28
2023-01-23T14:54:00.893Z,17.42
2023-01-23T14:56:40.088Z,17.56
2023-01-23T14:59:23.015Z,17.56
2023-01-23T15:02:10.197Z,17.66
2023-01-23T15:05:26.384Z,17.92
2023-01-23T15:08:20.958Z,17.84
2023-01-23T15:10:53.999Z,17.98
2023-01-23T15:13:49.106Z,17.87
2023-01-23T15:16:25.796Z,17.82
2023-01-23T15:19:01.151Z,17.75
2023-01-23T15:21:39.416Z,17.72
2023-01-23T15:24:16.649Z,17.74
2023-01-23T15:26:58.412Z,17.77
2023-01-23T15:29:28.841Z,17.88
2023-01-23T15:32:00.998Z,17.92
2023-01-23T15:34:36.625Z,17.93
2023-01-23T15:37:12.041Z,17.85
2023-01-23T15:39:48.987Z,18.08
2023-01-23T15:42:20.007Z,18.11
2023-01-23T15:44:54.711Z,18.20
2023-01-23T15:47:26.095Z,18.10
2023-01-23T15:49:57.744Z,18.16
2023-01-23T15:52:31.609Z,18.13
2023-01-23T15:55:05.742Z,17.84
2023-01-23T15:57:36.972Z,17.84
2023-01-23T16:00:26.789Z,17.92
2023-01-23T16:02:59.398Z,17.89
2023-01-23T16:05:34.812Z,17.90
2023-01-23T16:08:07.619Z,17.85
2023-01-23T16:10:41.776Z,17.76
2023-01-23T16:13:15.303Z,17.61
2023-01-23T16:15:46.302Z,17.75
2023-01-23T16:18:17.796Z,17.74
2023-01-23T16:20:48.970Z,17.81
2023-01-23T16:23:31.252Z,17.77
2023-01-23T16:26:07.178Z,17.96
2023-01-23T16:28:38.463Z,17.85
2023-01-23T16:31:10.878Z,17.77
2023-01-23T16:33:42.229Z,17.82
2023-01-23T16:36:20.315Z,17.52
2023-01-23T16:38:57.788Z,17.65
2023-01-23T16:41:28.581Z,17.64
2023-01-23T16:43:59.512Z,17.68
2023-01-23T16:46:30.660Z,17.66
2023-01-23T16:49:01.793Z,17.66
2023-01-23T16:51:33.482Z,17.72
2023-01-23T16:54:17.646Z,17.76
2023-01-23T16:56:54.189Z,17.84
2023-01-23T16:59:37.479Z,17.89
2023-01-23T17:02:19.495Z,18.03
2023-01-23T17:04:51.099Z,18.04
2023-01-23T17:07:22.919Z,18.06
2023-01-23T17:09:54.360Z,18.03
2023-01-23T17:12:31.319Z,17.96
2023-01-23T17:15:05.003Z,18.13
2023-01-23T17:17:37.301Z,18.22
2023-01-23T17:20:09.173Z,18.27
2023-01-23T17:22:40.707Z,18.23
2023-01-23T17:25:18.502Z,18.37
2023-01-23T17:28:03.616Z,18.37
2023-01-23T17:30:43.633Z,18.40
2023-01-23T17:33:29.782Z,18.44
2023-01-23T17:36:04.729Z,18.39
2023-01-23T17:38:36.686Z,18.40
2023-01-23T17:41:08.351Z,18.37
2023-01-23T17:43:40.560Z,18.42
2023-01-23T17:46:16.539Z,18.40
2023-01-23T17:48:47.776Z,18.50
2023-01-23T17:51:22.427Z,18.39
2023-01-23T17:53:53.503Z,18.27
2023-01-23T17:56:24.461Z,18.37
2023-01-23T17:58:55.821Z,18.41
2023-01-23T18:01:27.736Z,18.47
2023-01-23T18:03:58.946Z,18.43
2023-01-23T18:06:30.579Z,18.43
2023-01-23T18:09:02.158Z,18.30
2023-01-23T18:11:33.326Z,18.36
2023-01-23T18:14:34.158Z,18.49
2023-01-23T18:17:23.293Z,18.40
2023-01-23T18:19:55.423Z,18.33
2023-01-23T18:22:27.108Z,18.45
2023-01-23T18:24:58.161Z,18.39
2023-01-23T18:27:29.577Z,18.34
2023-01-23T18:30:22.765Z,18.32
2023-01-23T18:33:07.139Z,18.37
2023-01-23T18:35:45.098Z,18.42
2023-01-23T18:38:32.979Z,18.54
2023-01-23T18:41:23.364Z,18.44
2023-01-23T18:44:06.424Z,18.46
2023-01-23T18:46:37.649Z,18.48
2023-01-23T18:49:09.179Z,18.64
2023-01-23T18:51:44.948Z,18.62
2023-01-23T18:54:27.510Z,18.83
2023-01-23T18:57:18.565Z,18.80
2023-01-23T19:00:02.801Z,18.76
2023-01-23T19:02:54.766Z,18.74
2023-01-23T19:05:34.154Z,18.69
2023-01-23T19:08:05.469Z,18.75
2023-01-23T19:10:48.531Z,18.84
2023-01-23T19:13:43.555Z,18.89
2023-01-23T19:16:30.942Z,18.79
2023-01-23T19:19:20.576Z,18.96
2023-01-23T19:21:51.687Z,19.05
2023-01-23T19:24:22.964Z,19.25
2023-01-23T19:26:55.645Z,18.99
2023-01-23T19:29:26.808Z,19.08
2023-01-23T19:32:06.250Z,19.21
2023-01-23T19:34:37.485Z,19.37
2023-01-23T19:37:09.569Z,19.45
2023-01-23T19:39:40.694Z,19.53
2023-01-23T19:42:16.551Z,19.59
2023-01-23T19:44:47.458Z,19.71
2023-01-23T19:47:18.682Z,19.74
2023-01-23T19:49:50.057Z,19.62
2023-01-23T19:52:21.412Z,19.58
2023-01-23T19:54:52.645Z,19.93
2023-01-23T19:57:23.695Z,20.05
2023-01-23T19:59:54.754Z,20.39
2023-01-23T20:02:25.975Z,20.65
2023-01-23T20:04:59.134Z,20.94
2023-01-23T20:07:30.293Z,20.72
2023-01-23T20:10:01.310Z,20.60
2023-01-23T20:12:33.331Z,20.63
2023-01-23T20:15:04.389Z,21.02
2023-01-23T20:17:35.220Z,21.37
2023-01-23T20:20:10.118Z,22.23
2023-01-23T20:22:41.827Z,22.04
2023-01-23T20:25:18.014Z,22.10
2023-01-23T20:27:49.076Z,22.19
2023-01-23T20:30:21.750Z,22.05
2023-01-23T20:32:53.214Z,22.94
2023-01-23T20:35:24.789Z,22.36
2023-01-23T20:37:55.442Z,22.62
2023-01-23T20:40:26.627Z,22.19
2023-01-23T20:42:57.503Z,22.48
2023-01-23T20:45:28.885Z,21.98
2023-01-23T20:48:00.018Z,21.81
2023-01-23T20:50:30.888Z,21.91
2023-01-23T20:53:19.879Z,22.05
2023-01-23T20:56:01.891Z,21.71
2023-01-23T20:58:52.195Z,21.30
2023-01-23T21:01:24.767Z,21.28
2023-01-23T21:03:56.512Z,21.15
2023-01-23T21:06:27.666Z,21.21
2023-01-23T21:08:58.767Z,21.79
2023-01-23T21:11:30.311Z,21.74
2023-01-23T21:14:02.595Z,21.88
2023-01-23T21:16:34.166Z,22.39
2023-01-23T21:19:05.255Z,22.60
2023-01-23T21:21:36.550Z,21.89
2023-01-23T21:24:08.112Z,21.64
2023-01-23T21:26:39.431Z,21.42
2023-01-23T21:29:10.993Z,21.50
2023-01-23T21:31:42.452Z,20.91
2023-01-23T21:34:14.117Z,21.34
2023-01-23T21:36:45.741Z,21.41
2023-01-23T21:39:17.407Z,21.61
2023-01-23T21:41:48.637Z,21.45
2023-01-23T21:44:19.702Z,21.53
2023-01-23T21:46:51.451Z,21.37
2023-01-23T21:49:22.866Z,21.55
2023-01-23T21:51:53.802Z,21.67
2023-01-23T21:54:24.703Z,21.68
2023-01-23T21:56:55.920Z,21.84
2023-01-23T21:59:26.948Z,21.71
2023-01-23T22:01:58.317Z,21.61
2023-01-23T22:04:30.327Z,21.06
2023-01-23T22:07:01.372Z,21.75
2023-01-23T22:09:32.741Z,21.60
2023-01-23T22:12:03.823Z,21.66
2023-01-23T22:14:35.688Z,21.43
2023-01-23T22:17:09.400Z,20.87
2023-01-23T22:19:40.476Z,20.95
2023-01-23T22:22:11.569Z,21.17
2023-01-23T22:24:42.619Z,21.50
2023-01-23T22:27:13.705Z,21.72
2023-01-23T22:29:45.240Z,22.01
2023-01-23T22:32:16.349Z,21.97
2023-01-23T22:34:47.567Z,21.63
2023-01-23T22:37:19.683Z,21.99
2023-01-23T22:39:51.729Z,23.29
2023-01-23T22:42:22.721Z,23.50
2023-01-23T22:44:53.909Z,23.65
2023-01-23T22:47:25.024Z,25.12
2023-01-23T22:49:56.407Z,24.91
2023-01-23T22:52:27.502Z,24.40
2023-01-23T22:54:58.507Z,23.56
2023-01-23T22:57:29.619Z,24.00
2023-01-23T23:00:00.668Z,23.63
2023-01-23T23:02:33.578Z,23.86
2023-01-23T23:05:04.526Z,23.41
2023-01-23T23:07:39.279Z,23.18
2023-01-23T23:10:12.655Z,22.30
2023-01-23T23:12:44.065Z,22.65
2023-01-23T23:15:17.367Z,22.78
2023-01-23T23:17:48.354Z,22.57
2023-01-23T23:20:19.824Z,23.32
2023-01-23T23:22:51.068Z,23.88
2023-01-23T23:25:22.589Z,24.28
2023-01-23T23:27:53.799Z,24.61
2023-01-23T23:30:25.255Z,24.76
2023-01-23T23:32:56.367Z,24.13
2023-01-23T23:35:27.575Z,23.67
2023-01-23T23:37:58.190Z,23.37
2023-01-23T23:40:29.165Z,22.79
2023-01-23T23:43:00.205Z,23.67
2023-01-23T23:45:31.553Z,24.83
2023-01-23T23:48:03.635Z,23.75
2023-01-23T23:50:35.361Z,24.75
2023-01-23T23:53:05.780Z,25.43
2023-01-23T23:55:36.890Z,24.10
2023-01-23T23:58:08.100Z,24.49
